YYS weather

CLOSED Blissville Airport
Blissville, New Brunswick, Canada

Public forecast

Using degrees Celsius for public forecast. Weather courtesy of forecast.io.

METAR (pilot weather report)

Closest report is CFB Gagetown Heliport, 14.6 nm (27.1 km) NNE. Retrieved 2019/08/25 23:00 UTC (27 minutes ago):

CYCX 252300Z AUTO 14002KT 9SM CLR 17/12 A3031 RMK SLP265

TAF (pilot weather forecast)

Forecast is more than 12 hours old.

Closest forecast is CFB Gagetown Heliport, 14.6 nm (27.1 km) NNE. Retrieved 2019/08/23 06:33 UTC (3 days ago):

TAF TAF CYCX 230530Z 2306/2318 22005KT P6SM BKN050 OVC140 BECMG 2307/2309 FEW050 FEW150 BECMG 2312/2314 27010KT RMK NXT FCST BY 231200Z